sensor_id;sensor_type;location;lat;lon;timestamp;temperature;humidity
3136;DHT22;1578;47.658;9.922;2024-03-22T00:01:55;6.40;59.40
3136;DHT22;1578;47.658;9.922;2024-03-22T00:04:22;6.40;58.80
3136;DHT22;1578;47.658;9.922;2024-03-22T00:06:49;6.40;58.70
3136;DHT22;1578;47.658;9.922;2024-03-22T00:09:16;6.40;58.40
3136;DHT22;1578;47.658;9.922;2024-03-22T00:11:43;6.40;58.00
3136;DHT22;1578;47.658;9.922;2024-03-22T00:14:10;6.40;58.30
3136;DHT22;1578;47.658;9.922;2024-03-22T00:16:36;6.40;58.00
3136;DHT22;1578;47.658;9.922;2024-03-22T00:19:03;6.30;58.20
3136;DHT22;1578;47.658;9.922;2024-03-22T00:21:29;6.30;58.20
3136;DHT22;1578;47.658;9.922;2024-03-22T00:23:56;6.30;58.20
3136;DHT22;1578;47.658;9.922;2024-03-22T00:26:22;6.30;58.20
3136;DHT22;1578;47.658;9.922;2024-03-22T00:28:47;6.20;57.90
3136;DHT22;1578;47.658;9.922;2024-03-22T00:31:13;6.10;57.50
3136;DHT22;1578;47.658;9.922;2024-03-22T00:33:39;6.10;58.00
3136;DHT22;1578;47.658;9.922;2024-03-22T00:36:06;6.00;57.60
3136;DHT22;1578;47.658;9.922;2024-03-22T00:38:31;5.90;57.30
3136;DHT22;1578;47.658;9.922;2024-03-22T00:40:57;5.90;57.60
3136;DHT22;1578;47.658;9.922;2024-03-22T00:43:23;5.80;57.80
3136;DHT22;1578;47.658;9.922;2024-03-22T00:45:49;5.80;57.40
3136;DHT22;1578;47.658;9.922;2024-03-22T00:48:15;5.70;56.40
3136;DHT22;1578;47.658;9.922;2024-03-22T00:50:40;5.60;56.80
3136;DHT22;1578;47.658;9.922;2024-03-22T00:53:06;5.60;57.20
3136;DHT22;1578;47.658;9.922;2024-03-22T00:55:33;5.50;57.60
3136;DHT22;1578;47.658;9.922;2024-03-22T00:57:59;5.50;57.60
3136;DHT22;1578;47.658;9.922;2024-03-22T01:00:24;5.50;58.90
3136;DHT22;1578;47.658;9.922;2024-03-22T01:02:50;5.40;59.30
3136;DHT22;1578;47.658;9.922;2024-03-22T01:05:19;5.40;60.00
3136;DHT22;1578;47.658;9.922;2024-03-22T01:07:44;5.30;60.40
3136;DHT22;1578;47.658;9.922;2024-03-22T01:10:11;5.30;60.80
3136;DHT22;1578;47.658;9.922;2024-03-22T01:12:37;5.30;60.20
3136;DHT22;1578;47.658;9.922;2024-03-22T01:15:05;5.20;60.00
3136;DHT22;1578;47.658;9.922;2024-03-22T01:17:32;5.10;59.80
3136;DHT22;1578;47.658;9.922;2024-03-22T01:19:58;5.00;60.20
3136;DHT22;1578;47.658;9.922;2024-03-22T01:22:23;5.00;60.90
3136;DHT22;1578;47.658;9.922;2024-03-22T01:24:50;5.10;61.30
3136;DHT22;1578;47.658;9.922;2024-03-22T01:27:16;5.10;61.80
3136;DHT22;1578;47.658;9.922;2024-03-22T01:29:41;5.10;62.00
3136;DHT22;1578;47.658;9.922;2024-03-22T01:32:08;5.10;61.80
3136;DHT22;1578;47.658;9.922;2024-03-22T01:34:33;5.00;61.60
3136;DHT22;1578;47.658;9.922;2024-03-22T01:37:03;5.00;62.20
3136;DHT22;1578;47.658;9.922;2024-03-22T01:39:29;5.00;62.20
3136;DHT22;1578;47.658;9.922;2024-03-22T01:41:55;5.10;62.00
3136;DHT22;1578;47.658;9.922;2024-03-22T01:44:32;5.10;61.70
3136;DHT22;1578;47.658;9.922;2024-03-22T01:46:58;5.00;61.60
3136;DHT22;1578;47.658;9.922;2024-03-22T01:49:25;5.10;61.60
3136;DHT22;1578;47.658;9.922;2024-03-22T01:51:52;5.10;61.70
3136;DHT22;1578;47.658;9.922;2024-03-22T01:54:19;5.00;61.50
3136;DHT22;1578;47.658;9.922;2024-03-22T01:56:46;5.10;62.90
3136;DHT22;1578;47.658;9.922;2024-03-22T01:59:12;5.20;61.80
3136;DHT22;1578;47.658;9.922;2024-03-22T02:01:38;5.30;61.90
3136;DHT22;1578;47.658;9.922;2024-03-22T02:04:05;5.30;61.20
3136;DHT22;1578;47.658;9.922;2024-03-22T02:06:31;5.20;61.30
3136;DHT22;1578;47.658;9.922;2024-03-22T02:08:57;5.20;60.10
3136;DHT22;1578;47.658;9.922;2024-03-22T02:11:24;5.20;60.10
3136;DHT22;1578;47.658;9.922;2024-03-22T02:13:56;5.20;59.50
3136;DHT22;1578;47.658;9.922;2024-03-22T02:16:23;5.10;58.80
3136;DHT22;1578;47.658;9.922;2024-03-22T02:18:59;5.00;59.70
3136;DHT22;1578;47.658;9.922;2024-03-22T02:21:25;5.00;59.20
3136;DHT22;1578;47.658;9.922;2024-03-22T02:23:52;5.00;59.10
3136;DHT22;1578;47.658;9.922;2024-03-22T02:26:18;4.90;58.30
3136;DHT22;1578;47.658;9.922;2024-03-22T02:28:43;4.90;57.70
3136;DHT22;1578;47.658;9.922;2024-03-22T02:31:09;4.80;57.70
3136;DHT22;1578;47.658;9.922;2024-03-22T02:33:34;4.70;59.40
3136;DHT22;1578;47.658;9.922;2024-03-22T02:36:00;4.70;59.90
3136;DHT22;1578;47.658;9.922;2024-03-22T02:38:26;4.60;59.50
3136;DHT22;1578;47.658;9.922;2024-03-22T02:40:52;4.60;59.50
3136;DHT22;1578;47.658;9.922;2024-03-22T02:43:18;4.40;60.50
3136;DHT22;1578;47.658;9.922;2024-03-22T02:45:45;4.40;61.10
3136;DHT22;1578;47.658;9.922;2024-03-22T02:48:11;4.30;62.00
3136;DHT22;1578;47.658;9.922;2024-03-22T02:50:37;4.30;62.40
3136;DHT22;1578;47.658;9.922;2024-03-22T02:53:04;4.30;63.70
3136;DHT22;1578;47.658;9.922;2024-03-22T02:55:30;4.30;64.40
3136;DHT22;1578;47.658;9.922;2024-03-22T02:57:57;4.40;65.30
3136;DHT22;1578;47.658;9.922;2024-03-22T03:00:23;4.50;64.20
3136;DHT22;1578;47.658;9.922;2024-03-22T03:02:50;4.50;65.10
3136;DHT22;1578;47.658;9.922;2024-03-22T03:05:15;4.60;65.20
3136;DHT22;1578;47.658;9.922;2024-03-22T03:07:41;4.60;63.40
3136;DHT22;1578;47.658;9.922;2024-03-22T03:10:07;4.50;61.90
3136;DHT22;1578;47.658;9.922;2024-03-22T03:12:33;4.50;59.60
3136;DHT22;1578;47.658;9.922;2024-03-22T03:14:58;4.40;58.20
3136;DHT22;1578;47.658;9.922;2024-03-22T03:17:24;4.20;57.30
3136;DHT22;1578;47.658;9.922;2024-03-22T03:19:49;4.20;57.00
3136;DHT22;1578;47.658;9.922;2024-03-22T03:22:15;4.20;57.30
3136;DHT22;1578;47.658;9.922;2024-03-22T03:24:41;4.10;56.00
3136;DHT22;1578;47.658;9.922;2024-03-22T03:27:07;4.00;56.30
3136;DHT22;1578;47.658;9.922;2024-03-22T03:29:32;3.90;56.90
3136;DHT22;1578;47.658;9.922;2024-03-22T03:31:58;3.90;57.70
3136;DHT22;1578;47.658;9.922;2024-03-22T03:34:24;3.80;57.40
3136;DHT22;1578;47.658;9.922;2024-03-22T03:36:49;3.60;58.00
3136;DHT22;1578;47.658;9.922;2024-03-22T03:39:15;3.70;59.60
3136;DHT22;1578;47.658;9.922;2024-03-22T03:41:40;3.70;59.20
3136;DHT22;1578;47.658;9.922;2024-03-22T03:44:07;3.70;60.30
3136;DHT22;1578;47.658;9.922;2024-03-22T03:46:33;3.60;59.80
3136;DHT22;1578;47.658;9.922;2024-03-22T03:48:58;3.50;59.80
3136;DHT22;1578;47.658;9.922;2024-03-22T03:51:24;3.50;59.80
3136;DHT22;1578;47.658;9.922;2024-03-22T03:53:50;3.50;59.90
3136;DHT22;1578;47.658;9.922;2024-03-22T03:56:16;3.60;60.10
3136;DHT22;1578;47.658;9.922;2024-03-22T03:58:41;3.60;59.80
3136;DHT22;1578;47.658;9.922;2024-03-22T04:01:08;3.60;59.40
3136;DHT22;1578;47.658;9.922;2024-03-22T04:03:33;3.60;59.40
3136;DHT22;1578;47.658;9.922;2024-03-22T04:06:00;3.60;58.90
3136;DHT22;1578;47.658;9.922;2024-03-22T04:08:26;3.60;59.30
3136;DHT22;1578;47.658;9.922;2024-03-22T04:10:55;3.60;59.30
3136;DHT22;1578;47.658;9.922;2024-03-22T04:13:24;3.60;59.10
3136;DHT22;1578;47.658;9.922;2024-03-22T04:15:51;3.50;58.70
3136;DHT22;1578;47.658;9.922;2024-03-22T04:18:17;3.60;59.50
3136;DHT22;1578;47.658;9.922;2024-03-22T04:20:52;3.50;58.80
3136;DHT22;1578;47.658;9.922;2024-03-22T04:23:19;3.50;60.00
3136;DHT22;1578;47.658;9.922;2024-03-22T04:25:56;3.50;60.30
3136;DHT22;1578;47.658;9.922;2024-03-22T04:28:22;3.60;60.60
3136;DHT22;1578;47.658;9.922;2024-03-22T04:31:02;3.60;59.30
3136;DHT22;1578;47.658;9.922;2024-03-22T04:33:29;3.60;59.50
3136;DHT22;1578;47.658;9.922;2024-03-22T04:35:55;3.60;59.90
3136;DHT22;1578;47.658;9.922;2024-03-22T04:38:23;3.60;59.90
3136;DHT22;1578;47.658;9.922;2024-03-22T04:40:49;3.70;59.80
3136;DHT22;1578;47.658;9.922;2024-03-22T04:43:15;3.60;59.90
3136;DHT22;1578;47.658;9.922;2024-03-22T04:45:51;3.60;60.40
3136;DHT22;1578;47.658;9.922;2024-03-22T04:48:23;3.60;60.40
3136;DHT22;1578;47.658;9.922;2024-03-22T04:50:50;3.60;60.40
3136;DHT22;1578;47.658;9.922;2024-03-22T04:53:20;3.60;60.40
3136;DHT22;1578;47.658;9.922;2024-03-22T04:55:48;3.60;60.90
3136;DHT22;1578;47.658;9.922;2024-03-22T04:58:20;3.60;60.40
3136;DHT22;1578;47.658;9.922;2024-03-22T05:00:46;3.50;60.30
3136;DHT22;1578;47.658;9.922;2024-03-22T05:03:13;3.60;60.40
3136;DHT22;1578;47.658;9.922;2024-03-22T05:05:39;3.60;60.40
3136;DHT22;1578;47.658;9.922;2024-03-22T05:08:06;3.60;59.50
3136;DHT22;1578;47.658;9.922;2024-03-22T05:10:33;3.50;59.10
3136;DHT22;1578;47.658;9.922;2024-03-22T05:12:59;3.50;59.40
3136;DHT22;1578;47.658;9.922;2024-03-22T05:15:25;3.60;59.80
3136;DHT22;1578;47.658;9.922;2024-03-22T05:17:55;3.60;59.50
3136;DHT22;1578;47.658;9.922;2024-03-22T05:20:21;3.60;59.70
3136;DHT22;1578;47.658;9.922;2024-03-22T05:22:47;3.60;59.60
3136;DHT22;1578;47.658;9.922;2024-03-22T05:25:13;3.50;59.60
3136;DHT22;1578;47.658;9.922;2024-03-22T05:27:41;3.50;59.80
3136;DHT22;1578;47.658;9.922;2024-03-22T05:30:08;3.40;59.30
3136;DHT22;1578;47.658;9.922;2024-03-22T05:32:35;3.40;58.70
3136;DHT22;1578;47.658;9.922;2024-03-22T05:35:01;3.40;58.40
3136;DHT22;1578;47.658;9.922;2024-03-22T05:37:27;3.30;58.50
3136;DHT22;1578;47.658;9.922;2024-03-22T05:39:52;3.30;58.50
3136;DHT22;1578;47.658;9.922;2024-03-22T05:42:18;3.40;59.30
3136;DHT22;1578;47.658;9.922;2024-03-22T05:44:44;3.40;59.20
3136;DHT22;1578;47.658;9.922;2024-03-22T05:47:12;3.40;59.10
3136;DHT22;1578;47.658;9.922;2024-03-22T05:49:38;3.40;58.90
3136;DHT22;1578;47.658;9.922;2024-03-22T05:52:07;3.30;59.20
3136;DHT22;1578;47.658;9.922;2024-03-22T05:54:33;3.40;60.10
3136;DHT22;1578;47.658;9.922;2024-03-22T05:57:08;3.40;60.20
3136;DHT22;1578;47.658;9.922;2024-03-22T05:59:35;3.40;60.20
3136;DHT22;1578;47.658;9.922;2024-03-22T06:02:09;3.40;60.70
3136;DHT22;1578;47.658;9.922;2024-03-22T06:04:36;3.40;62.10
3136;DHT22;1578;47.658;9.922;2024-03-22T06:07:02;3.60;62.80
3136;DHT22;1578;47.658;9.922;2024-03-22T06:09:30;3.60;62.10
3136;DHT22;1578;47.658;9.922;2024-03-22T06:12:15;3.60;62.90
3136;DHT22;1578;47.658;9.922;2024-03-22T06:14:41;3.70;63.70
3136;DHT22;1578;47.658;9.922;2024-03-22T06:17:10;3.80;63.90
3136;DHT22;1578;47.658;9.922;2024-03-22T06:19:37;4.00;65.40
3136;DHT22;1578;47.658;9.922;2024-03-22T06:22:03;4.20;64.70
3136;DHT22;1578;47.658;9.922;2024-03-22T06:24:29;4.30;64.90
3136;DHT22;1578;47.658;9.922;2024-03-22T06:26:55;4.40;66.10
3136;DHT22;1578;47.658;9.922;2024-03-22T06:29:20;4.60;67.00
3136;DHT22;1578;47.658;9.922;2024-03-22T06:31:46;4.70;66.90
3136;DHT22;1578;47.658;9.922;2024-03-22T06:34:14;4.80;66.00
3136;DHT22;1578;47.658;9.922;2024-03-22T06:36:40;5.00;66.20
3136;DHT22;1578;47.658;9.922;2024-03-22T06:39:05;5.10;67.00
3136;DHT22;1578;47.658;9.922;2024-03-22T06:41:34;5.30;67.80
3136;DHT22;1578;47.658;9.922;2024-03-22T06:44:00;5.50;68.30
3136;DHT22;1578;47.658;9.922;2024-03-22T06:46:27;5.60;69.20
3136;DHT22;1578;47.658;9.922;2024-03-22T06:48:52;5.90;71.60
3136;DHT22;1578;47.658;9.922;2024-03-22T06:51:18;6.20;71.30
3136;DHT22;1578;47.658;9.922;2024-03-22T06:53:44;6.40;67.50
3136;DHT22;1578;47.658;9.922;2024-03-22T06:56:13;6.60;67.70
3136;DHT22;1578;47.658;9.922;2024-03-22T06:58:39;6.80;67.90
3136;DHT22;1578;47.658;9.922;2024-03-22T07:01:05;7.10;68.10
3136;DHT22;1578;47.658;9.922;2024-03-22T07:03:30;7.30;68.30
3136;DHT22;1578;47.658;9.922;2024-03-22T07:05:56;7.50;63.80
3136;DHT22;1578;47.658;9.922;2024-03-22T07:08:23;7.80;61.40
3136;DHT22;1578;47.658;9.922;2024-03-22T07:10:49;8.00;61.40
3136;DHT22;1578;47.658;9.922;2024-03-22T07:13:15;8.20;60.70
3136;DHT22;1578;47.658;9.922;2024-03-22T07:15:41;8.40;55.50
3136;DHT22;1578;47.658;9.922;2024-03-22T07:18:07;8.70;53.70
3136;DHT22;1578;47.658;9.922;2024-03-22T07:20:33;9.00;54.70
3136;DHT22;1578;47.658;9.922;2024-03-22T07:22:58;9.20;51.10
3136;DHT22;1578;47.658;9.922;2024-03-22T07:25:24;9.40;47.00
3136;DHT22;1578;47.658;9.922;2024-03-22T07:27:49;9.60;49.10
3136;DHT22;1578;47.658;9.922;2024-03-22T07:30:15;9.60;49.20
3136;DHT22;1578;47.658;9.922;2024-03-22T07:32:41;9.90;47.40
3136;DHT22;1578;47.658;9.922;2024-03-22T07:35:07;10.10;46.30
3136;DHT22;1578;47.658;9.922;2024-03-22T07:37:33;10.50;40.10
3136;DHT22;1578;47.658;9.922;2024-03-22T07:40:01;10.70;40.80
3136;DHT22;1578;47.658;9.922;2024-03-22T07:42:27;10.90;41.00
3136;DHT22;1578;47.658;9.922;2024-03-22T07:44:52;11.00;38.40
3136;DHT22;1578;47.658;9.922;2024-03-22T07:47:18;11.20;38.10
3136;DHT22;1578;47.658;9.922;2024-03-22T07:49:43;11.50;35.40
3136;DHT22;1578;47.658;9.922;2024-03-22T07:52:09;11.60;36.20
3136;DHT22;1578;47.658;9.922;2024-03-22T07:54:34;11.80;33.50
3136;DHT22;1578;47.658;9.922;2024-03-22T07:57:00;12.00;28.20
3136;DHT22;1578;47.658;9.922;2024-03-22T07:59:26;12.10;29.40
3136;DHT22;1578;47.658;9.922;2024-03-22T08:01:51;12.30;31.40
3136;DHT22;1578;47.658;9.922;2024-03-22T08:04:17;12.50;29.70
3136;DHT22;1578;47.658;9.922;2024-03-22T08:06:43;12.70;28.30
3136;DHT22;1578;47.658;9.922;2024-03-22T08:09:08;12.90;27.10
3136;DHT22;1578;47.658;9.922;2024-03-22T08:11:34;13.00;28.20
3136;DHT22;1578;47.658;9.922;2024-03-22T08:14:00;13.10;29.00
3136;DHT22;1578;47.658;9.922;2024-03-22T08:16:31;13.30;25.60
3136;DHT22;1578;47.658;9.922;2024-03-22T08:18:57;13.50;25.60
3136;DHT22;1578;47.658;9.922;2024-03-22T08:21:24;13.40;22.50
3136;DHT22;1578;47.658;9.922;2024-03-22T08:23:50;13.30;23.50
3136;DHT22;1578;47.658;9.922;2024-03-22T08:26:17;13.20;18.40
3136;DHT22;1578;47.658;9.922;2024-03-22T08:28:44;13.00;22.20
3136;DHT22;1578;47.658;9.922;2024-03-22T08:31:10;12.90;21.20
3136;DHT22;1578;47.658;9.922;2024-03-22T08:33:36;12.80;21.60
3136;DHT22;1578;47.658;9.922;2024-03-22T08:36:01;12.80;21.40
3136;DHT22;1578;47.658;9.922;2024-03-22T08:38:27;12.80;23.20
3136;DHT22;1578;47.658;9.922;2024-03-22T08:40:52;12.80;20.60
3136;DHT22;1578;47.658;9.922;2024-03-22T08:43:18;12.90;20.20
3136;DHT22;1578;47.658;9.922;2024-03-22T08:45:44;12.70;21.70
3136;DHT22;1578;47.658;9.922;2024-03-22T08:48:10;12.60;21.90
3136;DHT22;1578;47.658;9.922;2024-03-22T08:50:36;12.80;24.20
3136;DHT22;1578;47.658;9.922;2024-03-22T08:53:01;13.10;22.80
3136;DHT22;1578;47.658;9.922;2024-03-22T08:55:29;13.20;18.40
3136;DHT22;1578;47.658;9.922;2024-03-22T08:57:54;13.00;19.00
3136;DHT22;1578;47.658;9.922;2024-03-22T09:00:23;13.10;19.40
3136;DHT22;1578;47.658;9.922;2024-03-22T09:02:49;13.20;20.00
3136;DHT22;1578;47.658;9.922;2024-03-22T09:05:17;13.40;22.50
3136;DHT22;1578;47.658;9.922;2024-03-22T09:07:44;13.70;24.50
3136;DHT22;1578;47.658;9.922;2024-03-22T09:10:11;13.60;18.60
3136;DHT22;1578;47.658;9.922;2024-03-22T09:12:37;13.70;20.40
3136;DHT22;1578;47.658;9.922;2024-03-22T09:15:05;14.00;22.90
3136;DHT22;1578;47.658;9.922;2024-03-22T09:17:30;14.40;20.70
3136;DHT22;1578;47.658;9.922;2024-03-22T09:19:56;14.70;23.00
3136;DHT22;1578;47.658;9.922;2024-03-22T09:22:21;14.90;17.40
3136;DHT22;1578;47.658;9.922;2024-03-22T09:24:48;14.80;15.40
3136;DHT22;1578;47.658;9.922;2024-03-22T09:27:13;14.40;13.70
3136;DHT22;1578;47.658;9.922;2024-03-22T09:29:39;14.20;18.70
3136;DHT22;1578;47.658;9.922;2024-03-22T09:32:06;14.20;17.30
3136;DHT22;1578;47.658;9.922;2024-03-22T09:34:33;14.10;16.80
3136;DHT22;1578;47.658;9.922;2024-03-22T09:37:00;14.20;16.00
3136;DHT22;1578;47.658;9.922;2024-03-22T09:39:25;14.30;14.50
3136;DHT22;1578;47.658;9.922;2024-03-22T09:41:52;14.30;18.20
3136;DHT22;1578;47.658;9.922;2024-03-22T09:44:19;14.30;15.10
3136;DHT22;1578;47.658;9.922;2024-03-22T09:46:46;14.30;17.20
3136;DHT22;1578;47.658;9.922;2024-03-22T09:49:12;14.20;13.10
3136;DHT22;1578;47.658;9.922;2024-03-22T09:51:42;14.20;13.40
3136;DHT22;1578;47.658;9.922;2024-03-22T09:54:11;14.20;15.20
3136;DHT22;1578;47.658;9.922;2024-03-22T09:56:40;14.30;12.70
3136;DHT22;1578;47.658;9.922;2024-03-22T09:59:07;14.30;15.10
3136;DHT22;1578;47.658;9.922;2024-03-22T10:01:34;14.60;14.30
3136;DHT22;1578;47.658;9.922;2024-03-22T10:04:00;14.80;14.10
3136;DHT22;1578;47.658;9.922;2024-03-22T10:06:25;15.20;13.50
3136;DHT22;1578;47.658;9.922;2024-03-22T10:08:51;15.50;11.80
3136;DHT22;1578;47.658;9.922;2024-03-22T10:11:17;15.70;13.70
3136;DHT22;1578;47.658;9.922;2024-03-22T10:13:43;15.80;10.60
3136;DHT22;1578;47.658;9.922;2024-03-22T10:16:10;15.60;13.00
3136;DHT22;1578;47.658;9.922;2024-03-22T10:18:36;15.70;11.90
3136;DHT22;1578;47.658;9.922;2024-03-22T10:21:02;15.90;10.80
3136;DHT22;1578;47.658;9.922;2024-03-22T10:23:29;16.20;12.20
3136;DHT22;1578;47.658;9.922;2024-03-22T10:25:59;16.30;11.50
3136;DHT22;1578;47.658;9.922;2024-03-22T10:28:27;16.20;9.50
3136;DHT22;1578;47.658;9.922;2024-03-22T10:30:54;16.20;11.70
3136;DHT22;1578;47.658;9.922;2024-03-22T10:33:20;16.30;9.40
3136;DHT22;1578;47.658;9.922;2024-03-22T10:35:52;16.40;10.60
3136;DHT22;1578;47.658;9.922;2024-03-22T10:38:21;16.40;8.30
3136;DHT22;1578;47.658;9.922;2024-03-22T10:40:48;16.40;6.60
3136;DHT22;1578;47.658;9.922;2024-03-22T10:43:15;16.00;9.50
3136;DHT22;1578;47.658;9.922;2024-03-22T10:45:41;16.00;12.10
3136;DHT22;1578;47.658;9.922;2024-03-22T10:48:11;16.00;9.00
3136;DHT22;1578;47.658;9.922;2024-03-22T10:50:41;16.20;8.10
3136;DHT22;1578;47.658;9.922;2024-03-22T10:53:15;16.40;7.00
3136;DHT22;1578;47.658;9.922;2024-03-22T10:55:43;16.50;4.90
3136;DHT22;1578;47.658;9.922;2024-03-22T10:58:21;16.20;5.30
3136;DHT22;1578;47.658;9.922;2024-03-22T11:00:51;16.40;5.40
3136;DHT22;1578;47.658;9.922;2024-03-22T11:03:20;16.30;6.50
3136;DHT22;1578;47.658;9.922;2024-03-22T11:05:46;16.20;5.70
3136;DHT22;1578;47.658;9.922;2024-03-22T11:08:13;16.10;7.10
3136;DHT22;1578;47.658;9.922;2024-03-22T11:10:48;16.20;7.90
3136;DHT22;1578;47.658;9.922;2024-03-22T11:13:16;16.20;6.20
3136;DHT22;1578;47.658;9.922;2024-03-22T11:15:43;16.00;7.40
3136;DHT22;1578;47.658;9.922;2024-03-22T11:18:13;16.10;8.00
3136;DHT22;1578;47.658;9.922;2024-03-22T11:20:38;16.30;7.90
3136;DHT22;1578;47.658;9.922;2024-03-22T11:23:04;16.60;8.10
3136;DHT22;1578;47.658;9.922;2024-03-22T11:25:34;16.50;3.70
3136;DHT22;1578;47.658;9.922;2024-03-22T11:28:00;16.40;3.80
3136;DHT22;1578;47.658;9.922;2024-03-22T11:30:31;16.40;5.20
3136;DHT22;1578;47.658;9.922;2024-03-22T11:32:57;16.80;3.60
3136;DHT22;1578;47.658;9.922;2024-03-22T11:35:26;17.10;1.00
3136;DHT22;1578;47.658;9.922;2024-03-22T11:37:51;17.30;1.00
3136;DHT22;1578;47.658;9.922;2024-03-22T11:40:17;17.10;1.00
3136;DHT22;1578;47.658;9.922;2024-03-22T11:42:49;16.90;1.00
3136;DHT22;1578;47.658;9.922;2024-03-22T11:45:16;16.90;1.00
3136;DHT22;1578;47.658;9.922;2024-03-22T11:47:44;17.20;1.50
3136;DHT22;1578;47.658;9.922;2024-03-22T11:50:13;16.80;1.00
3136;DHT22;1578;47.658;9.922;2024-03-22T11:52:43;17.20;1.30
3136;DHT22;1578;47.658;9.922;2024-03-22T11:55:10;17.40;1.30
3136;DHT22;1578;47.658;9.922;2024-03-22T11:57:36;17.50;1.00
3136;DHT22;1578;47.658;9.922;2024-03-22T12:00:03;18.00;1.00
3136;DHT22;1578;47.658;9.922;2024-03-22T12:02:33;18.40;1.00
3136;DHT22;1578;47.658;9.922;2024-03-22T12:05:00;18.90;1.00
3136;DHT22;1578;47.658;9.922;2024-03-22T12:07:26;18.40;1.00
3136;DHT22;1578;47.658;9.922;2024-03-22T12:09:52;18.20;1.00
3136;DHT22;1578;47.658;9.922;2024-03-22T12:12:21;18.00;1.90
3136;DHT22;1578;47.658;9.922;2024-03-22T12:14:47;18.40;1.00
3136;DHT22;1578;47.658;9.922;2024-03-22T12:17:13;18.80;1.10
3136;DHT22;1578;47.658;9.922;2024-03-22T12:19:39;19.10;1.00
3136;DHT22;1578;47.658;9.922;2024-03-22T12:22:04;19.40;1.00
3136;DHT22;1578;47.658;9.922;2024-03-22T12:24:32;19.80;1.00
3136;DHT22;1578;47.658;9.922;2024-03-22T12:26:57;19.60;1.00
3136;DHT22;1578;47.658;9.922;2024-03-22T12:29:23;20.00;1.00
3136;DHT22;1578;47.658;9.922;2024-03-22T12:31:49;19.90;1.00
3136;DHT22;1578;47.658;9.922;2024-03-22T12:34:15;19.80;1.00
3136;DHT22;1578;47.658;9.922;2024-03-22T12:36:42;20.00;1.00
3136;DHT22;1578;47.658;9.922;2024-03-22T12:39:09;19.70;1.00
3136;DHT22;1578;47.658;9.922;2024-03-22T12:41:35;19.30;1.00
3136;DHT22;1578;47.658;9.922;2024-03-22T12:44:01;19.40;1.20
3136;DHT22;1578;47.658;9.922;2024-03-22T12:46:27;20.00;1.00
3136;DHT22;1578;47.658;9.922;2024-03-22T12:48:53;21.10;1.00
3136;DHT22;1578;47.658;9.922;2024-03-22T12:51:19;21.30;1.00
3136;DHT22;1578;47.658;9.922;2024-03-22T12:53:45;20.90;1.00
3136;DHT22;1578;47.658;9.922;2024-03-22T12:56:11;20.50;1.00
3136;DHT22;1578;47.658;9.922;2024-03-22T12:58:37;20.10;1.00
3136;DHT22;1578;47.658;9.922;2024-03-22T13:01:04;20.30;1.00
3136;DHT22;1578;47.658;9.922;2024-03-22T13:03:32;20.40;1.00
3136;DHT22;1578;47.658;9.922;2024-03-22T13:05:58;20.30;1.00
3136;DHT22;1578;47.658;9.922;2024-03-22T13:08:23;19.70;1.00
3136;DHT22;1578;47.658;9.922;2024-03-22T13:10:49;19.00;1.00
3136;DHT22;1578;47.658;9.922;2024-03-22T13:13:15;18.90;1.00
3136;DHT22;1578;47.658;9.922;2024-03-22T13:15:43;18.70;1.00
3136;DHT22;1578;47.658;9.922;2024-03-22T13:18:09;18.80;1.00
3136;DHT22;1578;47.658;9.922;2024-03-22T13:20:35;19.00;1.00
3136;DHT22;1578;47.658;9.922;2024-03-22T13:23:02;19.30;1.00
3136;DHT22;1578;47.658;9.922;2024-03-22T13:25:28;19.50;1.00
3136;DHT22;1578;47.658;9.922;2024-03-22T13:27:55;19.10;1.00
3136;DHT22;1578;47.658;9.922;2024-03-22T13:30:20;18.40;1.00
3136;DHT22;1578;47.658;9.922;2024-03-22T13:32:48;18.20;1.00
3136;DHT22;1578;47.658;9.922;2024-03-22T13:35:15;18.00;1.00
3136;DHT22;1578;47.658;9.922;2024-03-22T13:37:41;18.30;1.00
3136;DHT22;1578;47.658;9.922;2024-03-22T13:40:07;18.80;1.00
3136;DHT22;1578;47.658;9.922;2024-03-22T13:42:34;18.60;1.00
3136;DHT22;1578;47.658;9.922;2024-03-22T13:44:59;18.50;1.00
3136;DHT22;1578;47.658;9.922;2024-03-22T13:47:26;19.00;1.00
3136;DHT22;1578;47.658;9.922;2024-03-22T13:49:53;19.60;1.00
3136;DHT22;1578;47.658;9.922;2024-03-22T13:52:19;18.90;1.00
3136;DHT22;1578;47.658;9.922;2024-03-22T13:54:48;18.80;1.00
3136;DHT22;1578;47.658;9.922;2024-03-22T13:57:18;18.70;1.00
3136;DHT22;1578;47.658;9.922;2024-03-22T13:59:44;19.20;1.00
3136;DHT22;1578;47.658;9.922;2024-03-22T14:02:11;19.80;1.00
3136;DHT22;1578;47.658;9.922;2024-03-22T14:04:38;20.40;1.00
3136;DHT22;1578;47.658;9.922;2024-03-22T14:07:04;21.00;1.00
3136;DHT22;1578;47.658;9.922;2024-03-22T14:09:32;20.80;1.00
3136;DHT22;1578;47.658;9.922;2024-03-22T14:12:02;20.70;1.00
3136;DHT22;1578;47.658;9.922;2024-03-22T14:14:32;20.60;1.00
3136;DHT22;1578;47.658;9.922;2024-03-22T14:17:06;20.60;1.00
3136;DHT22;1578;47.658;9.922;2024-03-22T14:19:42;20.50;1.00
3136;DHT22;1578;47.658;9.922;2024-03-22T14:22:09;20.70;1.00
3136;DHT22;1578;47.658;9.922;2024-03-22T14:25:02;19.60;1.00
3136;DHT22;1578;47.658;9.922;2024-03-22T14:27:47;19.30;1.00
3136;DHT22;1578;47.658;9.922;2024-03-22T14:30:16;19.10;1.00
3136;DHT22;1578;47.658;9.922;2024-03-22T14:32:43;19.50;1.00
3136;DHT22;1578;47.658;9.922;2024-03-22T14:35:10;19.90;1.00
3136;DHT22;1578;47.658;9.922;2024-03-22T14:37:55;20.30;1.00
3136;DHT22;1578;47.658;9.922;2024-03-22T14:40:21;20.00;1.00
3136;DHT22;1578;47.658;9.922;2024-03-22T14:42:47;20.30;1.00
3136;DHT22;1578;47.658;9.922;2024-03-22T14:45:14;20.60;1.00
3136;DHT22;1578;47.658;9.922;2024-03-22T14:47:56;20.60;1.00
3136;DHT22;1578;47.658;9.922;2024-03-22T14:50:37;19.60;1.00
3136;DHT22;1578;47.658;9.922;2024-03-22T14:53:04;18.80;1.00
3136;DHT22;1578;47.658;9.922;2024-03-22T14:56:03;18.70;1.00
3136;DHT22;1578;47.658;9.922;2024-03-22T14:58:43;19.00;1.00
3136;DHT22;1578;47.658;9.922;2024-03-22T15:01:18;19.00;1.00
3136;DHT22;1578;47.658;9.922;2024-03-22T15:03:44;19.40;1.00
3136;DHT22;1578;47.658;9.922;2024-03-22T15:06:29;19.30;1.00
3136;DHT22;1578;47.658;9.922;2024-03-22T15:09:22;19.40;1.00
3136;DHT22;1578;47.658;9.922;2024-03-22T15:11:50;19.60;1.00
3136;DHT22;1578;47.658;9.922;2024-03-22T15:14:16;19.90;1.00
3136;DHT22;1578;47.658;9.922;2024-03-22T15:16:43;20.50;1.00
3136;DHT22;1578;47.658;9.922;2024-03-22T15:19:11;20.80;1.00
3136;DHT22;1578;47.658;9.922;2024-03-22T15:21:37;20.80;1.00
3136;DHT22;1578;47.658;9.922;2024-03-22T15:24:04;21.10;1.00
3136;DHT22;1578;47.658;9.922;2024-03-22T15:26:36;21.80;1.00
3136;DHT22;1578;47.658;9.922;2024-03-22T15:29:02;21.50;1.00
3136;DHT22;1578;47.658;9.922;2024-03-22T15:31:44;21.00;1.00
3136;DHT22;1578;47.658;9.922;2024-03-22T15:34:10;20.20;1.00
3136;DHT22;1578;47.658;9.922;2024-03-22T15:36:38;20.40;1.00
3136;DHT22;1578;47.658;9.922;2024-03-22T15:39:03;20.40;1.00
3136;DHT22;1578;47.658;9.922;2024-03-22T15:41:37;20.20;1.00
3136;DHT22;1578;47.658;9.922;2024-03-22T15:44:03;19.90;1.00
3136;DHT22;1578;47.658;9.922;2024-03-22T15:46:29;19.80;1.00
3136;DHT22;1578;47.658;9.922;2024-03-22T15:49:07;19.70;1.00
3136;DHT22;1578;47.658;9.922;2024-03-22T15:51:33;19.90;1.00
3136;DHT22;1578;47.658;9.922;2024-03-22T15:54:01;20.00;1.00
3136;DHT22;1578;47.658;9.922;2024-03-22T15:56:53;19.80;1.00
3136;DHT22;1578;47.658;9.922;2024-03-22T15:59:26;19.10;1.00
3136;DHT22;1578;47.658;9.922;2024-03-22T16:02:03;19.10;1.00
3136;DHT22;1578;47.658;9.922;2024-03-22T16:04:34;19.10;1.00
3136;DHT22;1578;47.658;9.922;2024-03-22T16:07:00;19.30;1.00
3136;DHT22;1578;47.658;9.922;2024-03-22T16:09:28;19.40;1.00
3136;DHT22;1578;47.658;9.922;2024-03-22T16:11:59;19.60;1.00
3136;DHT22;1578;47.658;9.922;2024-03-22T16:14:25;19.60;1.00
3136;DHT22;1578;47.658;9.922;2024-03-22T16:16:53;19.30;1.00